»·PEaware :: FJS1399 KSAN-KDAG

FJS1399 :: KSAN-KDAG

FLIGHT INFORMATION

Flight Status: Arrived
Operator: Unknown
More flights by this operator :: More flights under this callsign
Pilot: David C. (16084)
Aircraft: ECLIPSE 500
(EA50)
More flights by this aircraft type
Origin: KSAN San Diego Intl-Lindbergh
United States
Destination: KDAG Barstow-Daggett
United States
More flights between these airports :: More routes between these airports
Route: PEBLE6 SLI DAG
File this flight plan on PilotEdge
Remarks:
Altitude:
(Current/Filed)
16,000ft
Speed:
(Current/Filed)
339kts
Departed: 04-Oct-21 11:19 AM
Arrived: 04-Oct-21 11:59 AM
Distance/Time
Traveled:
129nm/0:40
Distance/Time
To Go:
Arrived

Flight Plot

Page will automatically refresh every two minutes.

Flight plan parsing failed; only flown route is shown


Map Options




Map Legend


Flown Route
Filed Route
Departure Airport
Arrival Airport
Navaid (VOR, NDB)
Fix

Horizontal Profiles

Position Reports

Time Latitude Longitude Heading Altitude Ground
Speed
04-Oct-21 10:47 32.734386 -117.179934 105 19ft 0kts
04-Oct-21 10:48 32.734386 -117.179934 105 19ft 0kts
04-Oct-21 10:49 32.734386 -117.179934 105 19ft 0kts
04-Oct-21 10:50 32.734386 -117.179934 105 19ft 0kts
04-Oct-21 10:51 32.734386 -117.179934 105 19ft 0kts
04-Oct-21 10:52 32.734386 -117.179934 105 19ft 0kts
04-Oct-21 10:53 32.734386 -117.179934 105 19ft 0kts
04-Oct-21 10:54 32.734386 -117.179934 105 19ft 0kts
04-Oct-21 10:55 32.734386 -117.179934 105 19ft 0kts
04-Oct-21 10:56 32.734386 -117.179934 105 19ft 0kts
04-Oct-21 10:57 32.734386 -117.179934 105 19ft 0kts
04-Oct-21 10:58 32.734386 -117.179934 105 19ft 0kts
04-Oct-21 10:59 32.734386 -117.179934 105 19ft 0kts
04-Oct-21 11:00 32.734386 -117.179934 105 19ft 0kts
04-Oct-21 11:01 32.734386 -117.179934 105 19ft 0kts
04-Oct-21 11:02 32.734386 -117.179934 105 19ft 0kts
04-Oct-21 11:03 32.734386 -117.179934 105 19ft 0kts
04-Oct-21 11:04 32.734386 -117.179934 105 19ft 0kts
04-Oct-21 11:05 32.734386 -117.179934 105 19ft 0kts
04-Oct-21 11:06 32.734386 -117.179934 105 19ft 0kts
04-Oct-21 11:07 32.734386 -117.179934 105 19ft 0kts
04-Oct-21 11:08 32.734386 -117.179934 105 19ft 0kts
04-Oct-21 11:09 32.734386 -117.179934 105 19ft 0kts
04-Oct-21 11:10 32.734386 -117.179934 105 19ft 0kts
04-Oct-21 11:11 32.734386 -117.179934 105 19ft 0kts
04-Oct-21 11:12 32.734386 -117.179934 105 19ft 0kts
04-Oct-21 11:13 32.734386 -117.179934 105 19ft 0kts
04-Oct-21 11:14 32.734173 -117.179478 164 19ft 0kts
04-Oct-21 11:15 32.732894 -117.179661 193 19ft 7kts
04-Oct-21 11:17 32.731431 -117.176279 107 19ft 17kts
04-Oct-21 11:18 32.730940 -117.175549 144 19ft 0kts
04-Oct-21 11:19 32.731046 -117.179310 286 19ft 77kts
04-Oct-21 11:20 32.751201 -117.216029 304 1632ft 162kts
04-Oct-21 11:21 32.782397 -117.267272 304 4059ft 211kts
04-Oct-21 11:22 32.817470 -117.324107 304 6934ft 219kts
04-Oct-21 11:23 32.856124 -117.385700 304 9176ft 248kts
04-Oct-21 11:24 32.900868 -117.453626 324 11188ft 277kts
04-Oct-21 11:25 32.963067 -117.509470 308 13222ft 287kts
04-Oct-21 11:26 33.014165 -117.582991 307 15245ft 288kts
04-Oct-21 11:27 33.066451 -117.661536 306 15989ft 329kts
04-Oct-21 11:28 33.126259 -117.753921 307 15982ft 359kts
04-Oct-21 11:29 33.192027 -117.843471 334 15972ft 362kts
04-Oct-21 11:30 33.288732 -117.876120 345 15993ft 361kts
04-Oct-21 11:31 33.385489 -117.909945 344 15988ft 362kts
04-Oct-21 11:32 33.481746 -117.944582 344 15980ft 362kts
04-Oct-21 11:33 33.577993 -117.979590 344 15978ft 362kts
04-Oct-21 11:34 33.674754 -118.014968 344 15974ft 362kts
04-Oct-21 11:35 33.771644 -118.046088 5 15959ft 358kts
04-Oct-21 11:36 33.847888 -117.975861 47 15972ft 352kts
04-Oct-21 11:37 33.916170 -117.891580 47 15968ft 352kts
04-Oct-21 11:38 33.984727 -117.807006 47 15994ft 352kts
04-Oct-21 11:39 34.053435 -117.722069 47 16013ft 355kts
04-Oct-21 11:40 34.122044 -117.637055 47 16011ft 353kts
04-Oct-21 11:41 34.190576 -117.551934 47 16023ft 353kts
04-Oct-21 11:42 34.258890 -117.466871 47 16037ft 352kts
04-Oct-21 11:42 34.315580 -117.396119 47 16064ft 352kts
04-Oct-21 11:43 34.384018 -117.310507 47 16111ft 353kts
04-Oct-21 11:45 34.463346 -117.210990 47 16128ft 353kts
04-Oct-21 11:46 34.530516 -117.126523 47 15412ft 329kts
04-Oct-21 11:47 34.593729 -117.046802 47 13406ft 325kts
04-Oct-21 11:47 34.645647 -116.981226 47 13076ft 314kts
04-Oct-21 11:48 34.702266 -116.922394 38 10811ft 254kts
04-Oct-21 11:49 34.757823 -116.875609 35 7937ft 239kts
04-Oct-21 11:51 34.814805 -116.828191 37 5787ft 189kts
04-Oct-21 11:51 34.848464 -116.804097 24 4742ft 162kts
04-Oct-21 11:52 34.892263 -116.799421 28 4331ft 148kts
04-Oct-21 11:53 34.874062 -116.805172 242 3604ft 135kts
04-Oct-21 11:54 34.847908 -116.807555 109 2749ft 120kts
04-Oct-21 11:55 34.864453 -116.775585 24 2336ft 118kts
04-Oct-21 11:56 34.866633 -116.809074 234 2997ft 144kts
04-Oct-21 11:57 34.845004 -116.804873 71 2434ft 123kts
04-Oct-21 11:58 34.860421 -116.780185 47 1914ft 14kts
04-Oct-21 11:59 34.861101 -116.781309 230 1914ft 15kts
04-Oct-21 12:00 34.858232 -116.786017 306 1919ft 6kts
04-Oct-21 12:01 34.859472 -116.786037 100 1918ft 0kts
04-Oct-21 12:02 34.859472 -116.786037 100 1918ft 0kts
04-Oct-21 12:04 34.859472 -116.786037 100 1918ft 0kts
04-Oct-21 12:05 34.859472 -116.786037 100 1918ft 0kts

Navigation Log

Ident Type
Flight plan parsing failed, navigation log unavailable